KMGJ/MGJ METAR and TAF weather

Enter ICAO airport designator
Station Type Date Time Source
KMGJ METAR 2020/02/22 05:54 UTC NOAA

KMGJ 220554Z AUTO 22004KT 10SM CLR M06/M12 A3026 RMK AO2 SLP252 T10561122 11039 21067 56019


Station Type Date Time Source
KMGJ Decoded METAR 2020/02/22 05:54 UTC NOAA

MONTGOMERY ORANGE CO AIRPORT, NY, United States (KMGJ) 41-31N 074-16W 108M
Feb 22, 2020 - 12:54 AM EST / 2020.02.22 0554 UTC
Wind: from the SW (220 degrees) at 5 MPH (4 KT):0
Visibility: 10 mile(s):0
Sky conditions: clear
Temperature: 21.9 F (-5.6 C)
Windchill: 15 F (-9 C):1
Dew Point: 10.0 F (-12.2 C)
Relative Humidity: 59%
Pressure (altimeter): 30.26 in. Hg (1024 hPa)
Pressure tendency: 0.06 inches (1.9 hPa) lower than three hours ago
ob: KMGJ 220554Z AUTO 22004KT 10SM CLR M06/M12 A3026 RMK AO2 SLP252 T10561122 11039 21067 56019
cycle: 6

Station Type Date Time Source
KMGJ TAF UTC NOAA

Error!

Example: see airport list